Time;durP1;ratioP1;P1;durP2;ratioP2;P2;SDS_P1;SDS_P2;PMS_P1;PMS_P2;Temp;Humidity;BMP_temperature;BMP_pressure;BME280_temperature;BME280_humidity;BME280_pressure;Samples;Min_cycle;Max_cycle;Signal;HPM_P1;HPM_P2
2022/01/24 00:00:50;;;;;;;55.15;25.55;;;;;;;5.66;79.55;103408.50;6206771;23;20011;-90
2022/01/24 00:03:15;;;;;;;52.40;27.15;;;;;;;5.65;79.29;103406.72;6208867;23;20103;-90
2022/01/24 00:05:41;;;;;;;50.20;26.58;;;;;;;5.69;79.53;103413.78;6207227;23;20055;-90
2022/01/24 00:08:06;;;;;;;50.70;25.38;;;;;;;5.57;77.36;103412.69;6208614;23;20440;-90
2022/01/24 00:10:34;;;;;;;56.75;25.83;;;;;;;5.55;77.45;103409.16;6206405;23;20009;-90
2022/01/24 00:18:07;;;;;;;47.67;24.10;;;;;;;5.57;76.34;103410.06;6212522;23;20015;-90
2022/01/24 00:28:44;;;;;;;40.33;21.50;;;;;;;5.59;72.92;103412.69;6208385;23;20126;-90
2022/01/24 00:31:10;;;;;;;35.88;19.67;;;;;;;5.62;72.91;103408.41;6208078;23;20377;-90
2022/01/24 00:33:35;;;;;;;43.25;22.40;;;;;;;5.58;73.03;103403.94;6205968;23;20387;-90
2022/01/24 00:36:00;;;;;;;43.20;22.58;;;;;;;5.65;74.40;103404.09;6207072;23;20043;-90
2022/01/24 00:38:26;;;;;;;40.22;21.77;;;;;;;5.62;74.71;103399.66;6207324;23;20018;-90
2022/01/24 00:40:51;;;;;;;42.45;21.40;;;;;;;5.63;74.79;103396.19;6206452;23;20028;-89
2022/01/24 00:43:26;;;;;;;44.08;23.27;;;;;;;5.56;75.42;103382.06;6207514;23;20016;-90
2022/01/24 00:46:00;;;;;;;42.10;22.45;;;;;;;5.64;74.87;103387.44;6206746;23;20015;-90
2022/01/24 00:56:31;;;;;;;42.22;22.08;;;;;;;5.63;75.92;103397.06;6208848;23;20039;-90
2022/01/24 00:58:56;;;;;;;45.08;22.38;;;;;;;5.60;75.61;103396.13;6208359;23;20036;-90
2022/01/24 01:01:22;;;;;;;38.70;21.58;;;;;;;5.65;74.98;103399.72;6206307;23;20004;-90
2022/01/24 01:03:47;;;;;;;41.50;22.23;;;;;;;5.61;75.44;103392.66;6206324;23;20019;-90
2022/01/24 01:06:14;;;;;;;40.92;22.10;;;;;;;5.64;75.97;103390.06;6208771;23;20437;-90
2022/01/24 01:19:38;;;;;;;40.00;21.67;;;;;;;5.63;75.44;103385.69;6209732;23;20022;-90
2022/01/24 01:22:04;;;;;;;42.15;22.02;;;;;;;5.59;76.03;103381.22;6210449;23;20020;-90
2022/01/24 01:24:32;;;;;;;41.58;21.70;;;;;;;5.59;76.10;103371.59;6209259;23;20004;-90
2022/01/24 01:27:21;;;;;;;40.47;21.60;;;;;;;5.63;75.64;103381.31;6208704;23;20543;-90
2022/01/24 01:30:22;;;;;;;43.53;23.15;;;;;;;5.59;76.24;103379.47;6209772;23;20009;-90
2022/01/24 01:35:50;;;;;;;39.20;20.25;;;;;;;5.58;75.16;103380.34;6212682;23;20054;-89
2022/01/24 01:57:19;;;;;;;37.97;20.10;;;;;;;5.56;76.12;103389.03;6211917;23;20020;-90
2022/01/24 01:59:45;;;;;;;34.58;19.05;;;;;;;5.54;75.21;103390.72;6207943;23;20422;-90
2022/01/24 02:02:11;;;;;;;35.67;18.48;;;;;;;5.52;74.01;103390.69;6207178;23;20069;-90
2022/01/24 02:04:36;;;;;;;34.05;18.25;;;;;;;5.55;75.16;103388.16;6210214;23;20020;-90
2022/01/24 02:07:02;;;;;;;34.63;17.63;;;;;;;5.58;75.13;103390.81;6208515;23;20090;-90
2022/01/24 02:09:30;;;;;;;33.88;18.48;;;;;;;5.53;75.81;103387.22;6208337;23;20055;-90
2022/01/24 02:11:55;;;;;;;31.88;17.60;;;;;;;5.49;75.89;103369.63;6209815;23;20034;-90
2022/01/24 02:14:23;;;;;;;30.75;17.15;;;;;;;5.51;74.13;103378.44;6207127;23;20120;-90
2022/01/24 02:19:33;;;;;;;29.00;15.80;;;;;;;5.54;73.50;103373.25;6212428;23;20043;-90
2022/01/24 02:24:25;;;;;;;27.15;16.20;;;;;;;5.54;74.55;103368.00;6212144;23;20012;-90
2022/01/24 02:26:55;;;;;;;31.45;15.93;;;;;;;5.52;75.25;103368.84;6207582;23;20084;-90
2022/01/24 02:29:43;;;;;;;32.20;17.17;;;;;;;5.50;74.77;103365.28;6207967;23;20009;-89
2022/01/24 02:32:06;;;;;;;27.40;14.98;;;;;;;5.50;73.16;103371.44;6208118;23;20005;-90
2022/01/24 02:34:36;;;;;;;27.13;14.70;;;;;;;5.51;73.59;103373.19;6206929;23;20483;-90
2022/01/24 02:37:11;;;;;;;26.95;15.18;;;;;;;5.48;73.51;103367.88;6207131;23;20051;-89
2022/01/24 02:51:31;;;;;;;30.05;15.68;;;;;;;5.49;75.12;103368.75;6208984;23;20135;-90
2022/01/24 02:53:36;;;;;;;29.75;15.25;;;;;;;5.44;74.63;103366.03;6207966;23;20005;-89
2022/01/24 02:56:04;;;;;;;29.83;15.07;;;;;;;5.39;73.78;103354.56;6207551;23;20087;-90
2022/01/24 02:58:29;;;;;;;34.28;16.75;;;;;;;5.45;74.12;103359.91;6207380;23;20008;-90
2022/01/24 03:00:56;;;;;;;28.35;15.18;;;;;;;5.46;74.21;103366.97;6206357;23;20054;-89
2022/01/24 03:03:21;;;;;;;27.13;14.93;;;;;;;5.40;74.88;103348.44;6208882;23;20015;-89
2022/01/24 03:05:46;;;;;;;34.78;15.90;;;;;;;5.39;74.30;103346.69;6207549;23;20025;-90
2022/01/24 03:08:14;;;;;;;28.10;15.30;;;;;;;5.38;74.57;103345.81;6208215;23;20468;-89
2022/01/24 03:10:45;;;;;;;28.75;15.23;;;;;;;5.46;75.35;103353.84;6208100;23;20024;-90
2022/01/24 03:15:51;;;;;;;27.80;15.52;;;;;;;5.41;73.14;103341.47;6212363;23;20324;-90
2022/01/24 03:18:18;;;;;;;26.40;14.35;;;;;;;5.48;73.71;103356.50;6209155;23;20005;-90
2022/01/24 03:20:44;;;;;;;27.20;14.88;;;;;;;5.44;75.33;103341.53;6208511;23;20004;-90
2022/01/24 03:23:11;;;;;;;25.42;14.57;;;;;;;5.42;74.78;103333.66;6209880;23;20054;-90
2022/01/24 03:25:37;;;;;;;28.25;15.25;;;;;;;5.43;74.28;103343.28;6207073;23;20460;-91
2022/01/24 03:28:04;;;;;;;25.27;14.02;;;;;;;5.42;73.82;103332.75;6209368;23;20009;-89
2022/01/24 03:30:30;;;;;;;26.52;15.25;;;;;;;5.47;73.90;103344.25;6208252;23;20007;-90
2022/01/24 03:32:56;;;;;;;30.25;14.68;;;;;;;5.37;73.43;103333.56;6208306;23;20005;-89
2022/01/24 03:35:21;;;;;;;26.75;14.95;;;;;;;5.38;72.40;103337.06;6206766;23;20284;-90
2022/01/24 03:37:47;;;;;;;27.50;15.85;;;;;;;5.33;72.05;103341.31;6209176;23;20013;-91
2022/01/24 03:40:12;;;;;;;26.17;15.05;;;;;;;5.29;73.50;103334.22;6209132;23;20001;-90
2022/01/24 03:42:38;;;;;;;30.42;15.02;;;;;;;5.29;74.19;103323.75;6206517;23;20012;-90
2022/01/24 03:45:06;;;;;;;27.67;15.18;;;;;;;5.34;74.15;103332.59;6208952;23;20020;-90
2022/01/24 03:49:57;;;;;;;25.58;14.18;;;;;;;5.37;74.18;103343.16;6211853;23;20040;-89
2022/01/24 03:52:23;;;;;;;28.05;14.52;;;;;;;5.39;73.55;103341.44;6206685;23;20023;-89
2022/01/24 03:54:49;;;;;;;25.73;14.50;;;;;;;5.42;72.86;103349.38;6207463;23;20480;-90
2022/01/24 03:57:17;;;;;;;27.92;14.15;;;;;;;5.36;73.99;103336.13;6208168;23;20008;-90
2022/01/24 03:59:43;;;;;;;27.17;14.43;;;;;;;5.40;73.91;103339.69;6206587;23;20009;-90
2022/01/24 04:02:11;;;;;;;28.35;15.25;;;;;;;5.41;72.76;103342.38;6208189;23;20376;-89
2022/01/24 04:04:36;;;;;;;24.83;14.25;;;;;;;5.29;73.71;103323.75;6211775;23;20016;-90
2022/01/24 04:07:02;;;;;;;25.75;14.57;;;;;;;5.41;73.65;103339.75;6212708;23;20159;-89
2022/01/24 04:09:27;;;;;;;25.67;15.10;;;;;;;5.39;73.17;103338.81;6212137;23;20022;-89
2022/01/24 04:11:56;;;;;;;28.95;15.85;;;;;;;5.36;73.26;103334.41;6211195;23;20011;-90
2022/01/24 04:17:22;;;;;;;28.35;15.20;;;;;;;5.31;74.19;103330.78;6241288;23;20012;-90
2022/01/24 04:22:36;;;;;;;25.80;13.82;;;;;;;5.33;74.67;103336.06;6238735;23;20087;-90
2022/01/24 04:25:04;;;;;;;27.52;14.88;;;;;;;5.28;74.56;103321.97;6238128;22;20000;-89
2022/01/24 04:27:30;;;;;;;28.80;15.23;;;;;;;5.36;74.50;103330.88;6211676;23;20012;-90
2022/01/24 04:29:56;;;;;;;30.50;16.50;;;;;;;5.24;73.62;103323.63;6239486;23;20115;-90
2022/01/24 04:32:21;;;;;;;28.45;16.00;;;;;;;5.23;70.72;103324.50;6237639;23;20039;-90
2022/01/24 04:34:48;;;;;;;28.40;15.23;;;;;;;5.23;71.26;103315.75;6211841;23;20004;-90
2022/01/24 04:37:14;;;;;;;31.10;15.40;;;;;;;5.32;72.48;103334.31;6211484;23;20502;-90
2022/01/24 04:39:39;;;;;;;30.13;15.27;;;;;;;5.37;72.54;103337.91;6239183;23;20004;-89
2022/01/24 04:42:23;;;;;;;28.63;16.20;;;;;;;5.31;72.89;103332.50;6211115;23;20388;-90
2022/01/24 04:52:43;;;;;;;31.20;16.10;;;;;;;5.32;73.86;103334.31;6238382;23;20023;-90
2022/01/24 04:55:09;;;;;;;31.38;17.25;;;;;;;5.29;75.77;103332.50;6238998;23;20031;-89
2022/01/24 04:57:34;;;;;;;29.65;15.70;;;;;;;5.29;74.27;103331.59;6238217;23;20020;-89
2022/01/24 05:00:03;;;;;;;29.48;15.05;;;;;;;5.29;75.04;103335.09;6238947;23;20005;-90
2022/01/24 05:02:28;;;;;;;29.25;15.20;;;;;;;5.30;74.51;103328.13;6186265;23;20373;-90
2022/01/24 05:04:58;;;;;;;26.55;15.52;;;;;;;5.29;73.73;103339.47;6223441;23;20036;-89
2022/01/24 05:07:24;;;;;;;30.80;15.77;;;;;;;5.19;75.29;103327.91;6206565;23;20046;-90
2022/01/24 05:23:27;;;;;;;28.83;16.00;;;;;;;5.33;74.29;103344.81;6207725;23;20019;-91
2022/01/24 05:25:53;;;;;;;31.52;15.73;;;;;;;5.25;74.96;103342.88;6207257;23;20005;-91
2022/01/24 05:28:20;;;;;;;30.70;15.93;;;;;;;5.22;74.91;103345.41;6208334;23;20279;-91
2022/01/24 05:30:45;;;;;;;31.40;17.02;;;;;;;5.24;74.83;103341.13;6206347;23;20004;-90
2022/01/24 05:33:11;;;;;;;32.92;16.88;;;;;;;5.24;75.03;103336.75;6207143;23;20011;-90
2022/01/24 05:35:36;;;;;;;27.02;16.13;;;;;;;5.27;74.85;103338.53;6206432;23;20349;-90
2022/01/24 05:38:02;;;;;;;33.05;16.92;;;;;;;5.21;75.03;103320.06;6207408;23;20039;-90
2022/01/24 05:40:28;;;;;;;28.65;15.82;;;;;;;5.27;75.29;103333.28;6204983;23;20397;-91
2022/01/24 05:42:53;;;;;;;30.45;16.30;;;;;;;5.24;75.40;103323.63;6204504;23;20100;-91
2022/01/24 05:45:18;;;;;;;31.13;16.40;;;;;;;5.21;75.87;103331.44;6206290;23;20004;-90
2022/01/24 05:47:44;;;;;;;30.95;17.63;;;;;;;5.09;75.25;103312.81;6205656;23;20012;-90
2022/01/24 05:50:10;;;;;;;26.17;14.93;;;;;;;5.25;75.03;103350.75;6206806;23;20445;-90
2022/01/24 05:52:35;;;;;;;29.90;15.95;;;;;;;5.17;75.67;103334.81;6206594;23;20087;-90
2022/01/24 05:55:02;;;;;;;31.30;15.30;;;;;;;5.18;75.48;103341.00;6208808;23;20054;-90
2022/01/24 05:57:28;;;;;;;28.17;16.17;;;;;;;5.18;75.69;103346.22;6207074;23;20012;-90
2022/01/24 05:59:53;;;;;;;30.92;15.48;;;;;;;5.20;75.79;103349.75;6206772;23;20549;-90
2022/01/24 06:02:19;;;;;;;30.45;16.95;;;;;;;5.18;76.15;103338.38;6205364;23;20023;-91
2022/01/24 06:04:45;;;;;;;30.67;16.73;;;;;;;5.15;75.51;103333.94;6211077;23;20026;-90
2022/01/24 06:07:10;;;;;;;28.70;15.70;;;;;;;5.19;74.54;103343.63;6212488;23;20335;-91
2022/01/24 06:09:35;;;;;;;34.17;17.38;;;;;;;5.18;75.51;103341.88;6238911;23;20494;-90
2022/01/24 06:12:01;;;;;;;34.97;17.63;;;;;;;5.09;74.26;103337.31;6211629;23;20012;-91
2022/01/24 06:14:26;;;;;;;32.97;16.55;;;;;;;5.08;74.31;103339.88;6211575;23;20022;-90
2022/01/24 06:16:51;;;;;;;32.22;17.60;;;;;;;5.09;73.17;103342.53;6239077;23;20079;-90
2022/01/24 06:19:17;;;;;;;30.83;15.93;;;;;;;5.05;73.41;103338.06;6212239;23;20054;-90
2022/01/24 06:21:44;;;;;;;31.17;16.33;;;;;;;5.01;73.70;103336.22;6211640;23;20007;-91
2022/01/24 06:24:10;;;;;;;34.70;18.08;;;;;;;5.08;71.84;103345.09;6212129;23;20460;-91
2022/01/24 06:26:36;;;;;;;33.40;16.55;;;;;;;5.10;72.85;103346.94;6211892;23;20318;-92
2022/01/24 06:29:01;;;;;;;32.00;16.55;;;;;;;5.14;72.69;103339.16;6239704;23;20145;-91
2022/01/24 06:31:27;;;;;;;34.30;17.50;;;;;;;5.18;73.58;103357.59;6212663;23;20004;-91
2022/01/24 06:33:52;;;;;;;30.92;17.52;;;;;;;5.16;74.38;103340.94;6239713;23;20340;-91
2022/01/24 06:36:17;;;;;;;35.40;17.73;;;;;;;5.19;74.39;103343.63;6213701;23;20011;-90
2022/01/24 06:38:43;;;;;;;32.17;17.05;;;;;;;5.16;74.96;103340.06;6239440;23;20010;-90
2022/01/24 06:41:08;;;;;;;32.95;16.73;;;;;;;5.17;74.27;103344.44;6213139;23;20012;-90
2022/01/24 06:43:33;;;;;;;28.33;16.17;;;;;;;5.17;74.99;103340.06;6212415;23;20012;-91
2022/01/24 06:46:00;;;;;;;36.15;16.75;;;;;;;5.18;74.90;103344.50;6212791;23;20040;-91
2022/01/24 06:48:26;;;;;;;30.70;16.85;;;;;;;5.18;73.46;103341.00;6212642;23;20031;-90
2022/01/24 06:50:52;;;;;;;35.03;17.30;;;;;;;5.17;74.29;103341.81;6239366;23;20008;-90
2022/01/24 06:53:17;;;;;;;33.85;17.77;;;;;;;5.15;74.44;103347.03;6212895;23;20028;-91
2022/01/24 06:55:42;;;;;;;34.05;17.10;;;;;;;5.16;74.95;103348.81;6213133;23;20003;-91
2022/01/24 06:58:08;;;;;;;36.47;18.10;;;;;;;5.20;74.85;103353.28;6212913;23;20436;-91
2022/01/24 07:00:33;;;;;;;35.42;17.60;;;;;;;5.12;73.75;103342.59;6212214;23;20008;-90
2022/01/24 07:02:59;;;;;;;37.13;18.88;;;;;;;5.08;73.82;103358.22;6211518;23;20015;-91
2022/01/24 07:05:26;;;;;;;31.60;16.33;;;;;;;5.01;73.93;103344.09;6212725;23;20331;-90
2022/01/24 07:07:51;;;;;;;34.47;17.40;;;;;;;5.04;74.41;103348.53;6212923;23;20384;-90
2022/01/24 07:10:17;;;;;;;30.08;16.08;;;;;;;5.03;74.66;103342.38;6239772;23;20011;-90
2022/01/24 07:12:42;;;;;;;34.38;17.17;;;;;;;5.04;74.27;103349.41;6237359;23;20379;-90
2022/01/24 07:15:12;;;;;;;30.05;16.50;;;;;;;5.00;73.24;103347.56;6232106;23;20423;-91
2022/01/24 07:20:22;;;;;;;34.50;20.27;;;;;;;5.04;72.32;103364.28;6238753;23;20524;-91
2022/01/24 07:22:47;;;;;;;32.55;16.85;;;;;;;4.98;73.85;103351.88;6211670;23;20039;-90
2022/01/24 07:25:13;;;;;;;34.75;18.45;;;;;;;5.02;73.37;103364.22;6212492;23;20026;-90
2022/01/24 07:27:39;;;;;;;33.72;17.80;;;;;;;4.95;73.67;103351.81;6238824;23;20004;-91
2022/01/24 07:30:05;;;;;;;36.30;18.45;;;;;;;4.95;72.91;103364.94;6239173;23;20083;-90
2022/01/24 07:32:31;;;;;;;36.28;19.95;;;;;;;4.93;72.58;103361.38;6212015;23;20039;-90
2022/01/24 07:34:57;;;;;;;34.67;19.20;;;;;;;4.92;74.34;103364.84;6212751;23;20015;-90
2022/01/24 07:37:24;;;;;;;40.08;20.38;;;;;;;4.82;74.86;103361.13;6239356;23;20015;-91
2022/01/24 07:39:49;;;;;;;35.08;19.30;;;;;;;4.82;75.04;103357.63;6213303;23;20004;-91
2022/01/24 07:42:18;;;;;;;40.08;20.63;;;;;;;4.76;75.29;103358.38;6211523;23;20336;-90
2022/01/24 07:44:44;;;;;;;41.40;21.58;;;;;;;4.75;75.52;103368.78;6212569;23;20199;-90
2022/01/24 07:47:10;;;;;;;45.60;23.08;;;;;;;4.72;73.91;103361.75;6211453;23;20004;-90
2022/01/24 07:49:36;;;;;;;45.67;21.85;;;;;;;4.77;74.76;103369.72;6212277;23;20091;-91
2022/01/24 07:52:02;;;;;;;45.13;20.90;;;;;;;4.74;75.06;103349.56;6238846;23;20031;-91
2022/01/24 07:54:28;;;;;;;43.53;21.48;;;;;;;4.85;75.11;103376.06;6212995;23;20003;-90
2022/01/24 07:56:53;;;;;;;38.30;19.80;;;;;;;4.89;74.69;103379.63;6212002;23;20007;-90
2022/01/24 07:59:20;;;;;;;39.55;19.80;;;;;;;4.90;75.00;103381.41;6239583;23;20375;-91
2022/01/24 08:01:48;;;;;;;40.22;21.05;;;;;;;4.91;74.43;103389.31;6211217;23;20424;-91
2022/01/24 08:04:13;;;;;;;40.45;20.20;;;;;;;5.03;74.56;103404.41;6211603;23;20181;-90
2022/01/24 08:06:39;;;;;;;40.00;20.25;;;;;;;4.97;73.78;103393.81;6238049;23;20436;-92
2022/01/24 08:09:06;;;;;;;39.67;20.70;;;;;;;5.00;74.18;103394.75;6212891;23;20130;-91
2022/01/24 08:11:31;;;;;;;41.13;21.20;;;;;;;5.03;74.58;103393.94;6211171;23;20083;-90
2022/01/24 08:13:57;;;;;;;39.55;19.75;;;;;;;5.10;73.47;103403.72;6211857;23;20394;-91
2022/01/24 08:16:23;;;;;;;44.17;20.55;;;;;;;5.08;72.92;103406.31;6238933;23;20482;-91
2022/01/24 08:18:51;;;;;;;43.58;21.58;;;;;;;5.01;72.36;103400.88;6239614;23;20012;-91
2022/01/24 08:21:18;;;;;;;40.60;20.40;;;;;;;4.90;71.58;103398.03;6237708;23;20004;-91
2022/01/24 08:23:43;;;;;;;40.95;21.60;;;;;;;4.95;71.75;103403.38;6212385;23;20421;-90
2022/01/24 08:26:09;;;;;;;39.70;20.02;;;;;;;5.00;71.90;103401.75;6238000;23;20075;-92
2022/01/24 08:28:34;;;;;;;39.90;19.50;;;;;;;4.92;72.29;103392.81;6211723;23;20308;-90
2022/01/24 08:31:00;;;;;;;39.42;21.10;;;;;;;4.91;72.40;103396.28;6211529;23;20004;-90
2022/01/24 08:33:26;;;;;;;42.20;21.52;;;;;;;4.99;72.15;103398.25;6238287;23;20101;-90
2022/01/24 08:35:51;;;;;;;39.03;20.45;;;;;;;5.04;73.49;103395.72;6210244;23;20086;-91
2022/01/24 08:38:17;;;;;;;41.33;20.42;;;;;;;5.08;72.11;103400.16;6211859;23;20102;-90
2022/01/24 08:40:45;;;;;;;46.33;25.17;;;;;;;4.99;72.64;103403.50;6211673;23;20046;-90
2022/01/24 08:43:11;;;;;;;43.40;22.52;;;;;;;4.87;71.89;103397.94;6211066;23;20380;-90
2022/01/24 08:45:45;;;;;;;43.78;21.30;;;;;;;4.96;71.72;103405.13;6238936;23;20007;-91
2022/01/24 08:48:12;;;;;;;47.13;23.17;;;;;;;4.94;72.96;103396.34;6238668;23;20082;-90
2022/01/24 08:50:38;;;;;;;44.05;21.15;;;;;;;5.00;72.42;103391.25;6212422;23;20008;-90
2022/01/24 08:53:04;;;;;;;44.38;21.20;;;;;;;5.17;71.88;103418.75;6240443;23;20367;-90
2022/01/24 08:55:31;;;;;;;43.50;21.60;;;;;;;5.15;72.60;103401.22;6211550;23;20114;-90
2022/01/24 08:57:58;;;;;;;45.85;20.98;;;;;;;5.15;71.20;103402.09;6211964;23;20008;-90
2022/01/24 09:00:24;;;;;;;40.97;21.35;;;;;;;5.16;71.56;103405.59;6186525;23;20238;-91
2022/01/24 09:02:50;;;;;;;46.25;22.88;;;;;;;5.19;70.76;103416.19;6238901;23;20079;-90
2022/01/24 09:05:21;;;;;;;43.42;22.45;;;;;;;5.18;70.42;103399.56;6211376;23;20125;-90
2022/01/24 09:07:47;;;;;;;44.35;23.35;;;;;;;5.18;72.22;103410.06;6239013;23;20000;-90
2022/01/24 09:10:12;;;;;;;44.35;23.60;;;;;;;5.10;70.20;103412.47;6211709;23;20100;-90
2022/01/24 09:12:38;;;;;;;43.60;24.80;;;;;;;4.93;71.41;103405.94;6216628;23;20000;-90
2022/01/24 09:15:04;;;;;;;28.38;14.00;;;;;;;5.11;70.75;103413.38;6239788;23;20333;-90
2022/01/24 09:17:29;;;;;;;46.17;22.67;;;;;;;5.07;70.83;103412.41;6212115;23;20062;-91
2022/01/24 09:19:54;;;;;;;47.00;23.85;;;;;;;4.98;71.60;103412.19;6212677;23;20104;-91
2022/01/24 09:22:20;;;;;;;43.42;21.70;;;;;;;4.99;73.21;103411.34;6237688;23;20004;-90
2022/01/24 09:24:45;;;;;;;47.95;23.50;;;;;;;5.08;72.29;103419.44;6211883;23;20073;-91
2022/01/24 09:27:10;;;;;;;41.33;20.73;;;;;;;5.04;71.09;103412.34;6212762;23;20004;-91
2022/01/24 09:29:36;;;;;;;41.53;21.55;;;;;;;4.81;70.57;103388.19;6214010;23;20435;-90
2022/01/24 09:32:01;;;;;;;42.90;22.60;;;;;;;4.78;71.90;103401.22;6213030;23;20419;-90
2022/01/24 09:34:27;;;;;;;49.85;22.38;;;;;;;4.98;73.47;103400.81;6212674;23;20004;-90
2022/01/24 09:36:52;;;;;;;42.38;21.83;;;;;;;5.09;71.92;103408.09;6213587;23;20637;-90
2022/01/24 09:39:18;;;;;;;46.08;24.15;;;;;;;5.11;70.92;103411.63;6240359;23;20012;-91
2022/01/24 09:41:45;;;;;;;44.15;23.13;;;;;;;5.12;71.47;103410.78;6213864;23;20018;-90
2022/01/24 09:44:10;;;;;;;41.67;22.35;;;;;;;5.09;70.31;103409.84;6240362;23;20004;-90
2022/01/24 09:46:37;;;;;;;43.55;23.58;;;;;;;5.08;71.18;103416.81;6213075;23;20419;-90
2022/01/24 09:49:04;;;;;;;43.97;21.45;;;;;;;5.16;71.03;103410.84;6240523;23;20445;-90
2022/01/24 09:51:30;;;;;;;41.88;20.70;;;;;;;5.12;69.54;103410.78;6239998;23;20447;-90
2022/01/24 09:53:56;;;;;;;45.08;22.80;;;;;;;5.10;70.40;103411.59;6212960;23;20066;-89
2022/01/24 09:56:22;;;;;;;43.08;20.17;;;;;;;5.15;69.83;103409.09;6213389;23;20007;-91
2022/01/24 09:58:47;;;;;;;41.95;21.77;;;;;;;5.12;70.85;103405.53;6240499;23;20000;-90
2022/01/24 10:01:18;;;;;;;40.95;20.83;;;;;;;5.13;69.74;103406.44;6212547;23;20004;-91
2022/01/24 10:04:05;;;;;;;41.45;21.98;;;;;;;5.21;69.70;103407.47;6212889;23;20015;-90
2022/01/24 10:07:01;;;;;;;44.95;24.45;;;;;;;5.09;70.67;103405.47;6208235;23;20026;-92
2022/01/24 10:09:33;;;;;;;41.53;20.48;;;;;;;5.09;70.96;103415.06;6208835;23;20016;-90
2022/01/24 10:12:35;;;;;;;44.15;20.58;;;;;;;5.29;71.20;103413.78;6208172;23;20015;-90
2022/01/24 10:17:48;;;;;;;41.25;21.48;;;;;;;5.54;68.89;103401.22;6210064;23;20023;-91
2022/01/24 10:20:26;;;;;;;41.13;20.50;;;;;;;5.57;69.03;103406.53;6212502;23;20009;-90
2022/01/24 10:23:09;;;;;;;39.20;20.73;;;;;;;5.53;69.24;103400.34;6211732;23;20436;-91
2022/01/24 10:25:59;;;;;;;43.65;20.58;;;;;;;5.55;69.75;103403.91;6210112;23;20341;-90
2022/01/24 10:28:33;;;;;;;38.20;18.45;;;;;;;5.62;69.11;103391.78;6209564;23;20467;-89
2022/01/24 10:31:24;;;;;;;37.90;19.20;;;;;;;5.76;69.12;103399.94;6209284;23;20477;-90
2022/01/24 10:33:53;;;;;;;43.67;21.75;;;;;;;5.71;67.90;103393.72;6213498;23;20000;-90
2022/01/24 10:36:32;;;;;;;40.92;20.48;;;;;;;5.73;68.08;103402.50;6212253;23;20009;-90
2022/01/24 10:39:20;;;;;;;39.40;19.85;;;;;;;5.68;68.53;103402.41;6213807;23;20475;-91
2022/01/24 10:42:21;;;;;;;37.47;17.67;;;;;;;5.68;68.20;103396.28;6212851;23;20004;-90
2022/01/24 10:44:46;;;;;;;41.15;19.63;;;;;;;5.71;67.56;103385.84;6210755;23;20008;-90
2022/01/24 10:47:19;;;;;;;38.90;20.27;;;;;;;5.80;67.97;103394.78;6211337;23;20314;-91
2022/01/24 10:49:46;;;;;;;41.97;22.35;;;;;;;5.81;68.89;103386.06;6212226;23;20432;-90
2022/01/24 10:52:19;;;;;;;37.13;19.92;;;;;;;5.69;67.71;103380.59;6211776;23;20723;-90
2022/01/24 10:54:48;;;;;;;43.78;21.45;;;;;;;5.72;66.93;103375.38;6209508;23;20000;-90
2022/01/24 10:57:40;;;;;;;40.03;20.92;;;;;;;5.93;69.09;103390.72;6209472;23;20001;-90
2022/01/24 11:00:13;;;;;;;41.10;21.90;;;;;;;6.01;67.07;103383.84;6201219;23;20004;-91
2022/01/24 11:02:41;;;;;;;41.65;20.30;;;;;;;5.96;66.49;103377.63;6207735;23;20325;-90
2022/01/24 11:05:25;;;;;;;45.38;20.27;;;;;;;5.99;67.42;103369.81;6212884;23;20012;-91
2022/01/24 11:07:58;;;;;;;40.45;21.15;;;;;;;5.92;65.49;103383.69;6212990;23;20011;-90
2022/01/24 11:10:27;;;;;;;38.85;19.67;;;;;;;5.94;66.76;103363.59;6212853;23;20424;-92
2022/01/24 11:12:52;;;;;;;42.70;21.73;;;;;;;5.85;66.34;103369.53;6212224;23;20004;-91
2022/01/24 11:15:22;;;;;;;36.78;20.48;;;;;;;6.02;67.40;103377.78;6212341;23;20058;-91
2022/01/24 11:17:48;;;;;;;41.47;20.33;;;;;;;6.13;67.97;103378.84;6212550;23;20332;-90
2022/01/24 11:20:18;;;;;;;39.50;21.63;;;;;;;6.12;65.67;103370.97;6213370;23;20000;-90
2022/01/24 11:22:52;;;;;;;38.00;21.05;;;;;;;6.17;66.34;103385.06;6212857;23;20011;-90
2022/01/24 11:25:18;;;;;;;38.80;19.80;;;;;;;6.16;66.01;103380.66;6239263;22;20004;-90
2022/01/24 11:27:47;;;;;;;40.22;21.20;;;;;;;6.19;66.18;103378.09;6212291;23;20088;-90
2022/01/24 11:30:25;;;;;;;42.25;21.20;;;;;;;6.29;67.07;103379.13;6211919;23;20087;-91
2022/01/24 11:32:55;;;;;;;41.78;22.60;;;;;;;6.26;65.67;103369.47;6212415;23;20010;-90
2022/01/24 11:35:41;;;;;;;36.72;20.25;;;;;;;6.11;65.12;103366.56;6239397;23;20054;-90
2022/01/24 11:38:26;;;;;;;37.70;20.02;;;;;;;6.10;66.78;103370.03;6211972;23;20008;-91
2022/01/24 11:40:59;;;;;;;36.25;18.17;;;;;;;6.15;66.13;103365.75;6239474;23;20003;-90
2022/01/24 11:43:27;;;;;;;35.55;18.23;;;;;;;6.21;65.21;103375.50;6210920;23;20004;-91
2022/01/24 11:46:01;;;;;;;37.65;19.90;;;;;;;6.24;66.66;103365.03;6212756;23;20008;-91
2022/01/24 11:48:26;;;;;;;39.40;19.02;;;;;;;6.25;65.59;103369.41;6209752;23;20345;-90
2022/01/24 11:51:03;;;;;;;36.53;20.88;;;;;;;6.10;65.84;103365.66;6212339;23;20008;-91
2022/01/24 11:53:32;;;;;;;22.75;10.88;;;;;;;6.10;65.01;103365.66;6211141;23;20497;-90
2022/01/24 11:56:20;;;;;;;34.97;20.55;;;;;;;5.95;65.28;103357.50;6186910;23;20042;-90
2022/01/24 11:58:46;;;;;;;39.35;20.75;;;;;;;5.94;65.61;103354.84;6236662;23;20602;-90
2022/01/24 12:01:18;;;;;;;35.90;19.00;;;;;;;5.95;65.88;103336.50;6212438;23;20031;-90
2022/01/24 12:03:51;;;;;;;;;;;;;;;6.31;67.26;103353.78;6210365;23;20000;-90
2022/01/24 12:06:19;;;;;;;;;;;;;;;6.36;64.20;103358.25;6207163;23;19954;-91
2022/01/24 12:08:47;;;;;;;37.33;18.75;;;;;;;6.10;64.20;103334.13;6207283;23;20293;-90
2022/01/24 12:11:22;;;;;;;39.33;20.38;;;;;;;6.10;65.26;103349.00;6207831;23;20456;-90
2022/01/24 12:13:51;;;;;;;36.33;19.40;;;;;;;6.01;66.42;103343.59;6206092;23;20028;-90
2022/01/24 12:16:17;;;;;;;41.90;24.67;;;;;;;5.88;65.22;103343.34;6203759;23;20464;-91
2022/01/24 12:18:46;;;;;;;36.88;20.10;;;;;;;6.18;65.98;103341.28;6205159;23;20336;-90
2022/01/24 12:21:32;;;;;;;37.05;17.98;;;;;;;6.43;64.16;103342.59;6206219;23;20032;-90
2022/01/24 12:24:04;;;;;;;36.90;19.95;;;;;;;6.48;65.29;103346.19;6203917;23;20019;-90
2022/01/24 12:26:38;;;;;;;37.17;20.35;;;;;;;6.31;63.95;103338.91;6207083;23;20029;-90
2022/01/24 12:29:11;;;;;;;35.80;19.73;;;;;;;6.56;64.69;103334.06;6204694;23;20004;-90
2022/01/24 12:31:39;;;;;;;36.67;17.65;;;;;;;6.83;63.85;103337.13;6203640;23;20010;-90
2022/01/24 12:34:09;;;;;;;37.03;18.13;;;;;;;6.91;63.23;103342.53;6203795;23;20392;-90
2022/01/24 12:36:37;;;;;;;35.20;18.15;;;;;;;6.79;62.83;103343.22;6203625;23;20407;-90
2022/01/24 12:39:27;;;;;;;37.30;18.65;;;;;;;6.59;64.12;103336.75;6204574;23;20044;-90
2022/01/24 12:41:59;;;;;;;37.25;18.55;;;;;;;6.70;64.58;103335.19;6203278;23;20015;-90
2022/01/24 12:47:10;;;;;;;37.50;20.13;;;;;;;7.00;63.05;103311.09;6207073;23;20017;-90
2022/01/24 12:49:35;;;;;;;33.50;17.98;;;;;;;7.07;62.69;103312.94;6202201;23;20008;-90
2022/01/24 12:52:05;;;;;;;34.42;18.40;;;;;;;7.30;61.68;103318.53;6203117;23;20015;-90
2022/01/24 12:54:39;;;;;;;34.08;17.58;;;;;;;7.53;63.26;103325.84;6204080;23;20004;-90
2022/01/24 12:57:10;;;;;;;33.72;19.10;;;;;;;7.47;61.77;103294.19;6202694;23;20031;-91
2022/01/24 12:59:37;;;;;;;33.70;18.02;;;;;;;7.20;60.96;103321.03;6204813;23;20008;-90
2022/01/24 13:02:08;;;;;;;32.60;17.13;;;;;;;7.16;62.71;103307.81;6204207;23;20011;-90
2022/01/24 13:04:39;;;;;;;36.00;18.77;;;;;;;7.27;61.88;103299.16;6204625;23;20031;-90
2022/01/24 13:07:06;;;;;;;34.45;17.55;;;;;;;7.47;61.17;103300.31;6207470;23;20020;-90
2022/01/24 13:09:33;;;;;;;32.33;16.60;;;;;;;7.70;60.75;103303.22;6205969;23;20032;-91
2022/01/24 13:12:05;;;;;;;35.08;17.15;;;;;;;7.81;59.82;103298.06;6204398;23;20083;-90
2022/01/24 13:14:47;;;;;;;33.20;18.80;;;;;;;7.83;58.98;103291.06;6203825;23;20429;-91